createdAt,value
2019-03-04T00:01:21.640Z,21.65
2019-03-04T00:03:52.520Z,21.65
2019-03-04T00:06:23.396Z,18.30
2019-03-04T00:08:54.216Z,18.67
2019-03-04T00:11:25.365Z,17.42
2019-03-04T00:13:56.181Z,17.75
2019-03-04T00:16:27.012Z,15.00
2019-03-04T00:18:57.880Z,18.15
2019-03-04T00:21:28.732Z,19.02
2019-03-04T00:23:59.545Z,18.80
2019-03-04T00:26:30.637Z,20.00
2019-03-04T00:29:01.821Z,14.80
2019-03-04T00:31:33.152Z,19.45
2019-03-04T00:34:04.426Z,14.73
2019-03-04T00:36:35.652Z,18.82
2019-03-04T00:39:10.953Z,17.57
2019-03-04T00:41:42.121Z,19.92
2019-03-04T00:44:13.282Z,20.72
2019-03-04T00:46:44.425Z,19.15
2019-03-04T00:49:15.536Z,18.40
2019-03-04T00:51:46.864Z,19.45
2019-03-04T00:54:17.692Z,20.68
2019-03-04T00:56:48.560Z,24.95
2019-03-04T00:59:19.396Z,24.47
2019-03-04T01:01:50.344Z,16.15
2019-03-04T01:04:21.396Z,16.77
2019-03-04T01:06:52.736Z,18.98
2019-03-04T01:09:23.555Z,15.32
2019-03-04T01:11:54.409Z,17.95
2019-03-04T01:14:25.240Z,22.50
2019-03-04T01:16:56.089Z,24.10
2019-03-04T01:19:26.916Z,17.87
2019-03-04T01:21:57.769Z,20.25
2019-03-04T01:24:29.119Z,22.25
2019-03-04T01:27:00.307Z,20.00
2019-03-04T01:29:31.402Z,16.62
2019-03-04T01:32:02.556Z,16.12
2019-03-04T01:34:33.384Z,19.05
2019-03-04T01:37:04.325Z,23.07
2019-03-04T01:39:35.228Z,21.27
2019-03-04T01:42:06.093Z,13.28
2019-03-04T01:44:36.919Z,18.10
2019-03-04T01:47:07.786Z,19.92
2019-03-04T01:49:38.714Z,23.47
2019-03-04T01:52:09.533Z,24.63
2019-03-04T01:54:40.348Z,14.53
2019-03-04T01:57:11.547Z,19.37
2019-03-04T01:59:42.733Z,13.75
2019-03-04T02:02:13.680Z,13.70
2019-03-04T02:04:44.812Z,21.62
2019-03-04T02:07:17.154Z,22.02
2019-03-04T02:09:48.325Z,21.60
2019-03-04T02:12:19.446Z,19.48
2019-03-04T02:14:50.318Z,19.77
2019-03-04T02:17:21.208Z,18.42
2019-03-04T02:19:52.093Z,16.40
2019-03-04T02:22:22.923Z,18.52
2019-03-04T02:24:53.782Z,20.40
2019-03-04T02:27:24.970Z,15.95
2019-03-04T02:29:55.832Z,21.05
2019-03-04T02:32:26.694Z,18.90
2019-03-04T02:34:57.532Z,16.37
2019-03-04T02:37:28.360Z,22.80
2019-03-04T02:39:59.193Z,19.15
2019-03-04T02:42:30.067Z,21.07
2019-03-04T02:45:00.913Z,20.72
2019-03-04T02:47:33.325Z,17.23
2019-03-04T02:50:04.244Z,21.05
2019-03-04T02:52:35.126Z,20.90
2019-03-04T02:55:06.770Z,19.70
2019-03-04T02:57:37.637Z,18.10
2019-03-04T03:00:09.694Z,20.88
2019-03-04T03:02:40.849Z,16.07
2019-03-04T03:05:12.033Z,18.90
2019-03-04T03:07:43.258Z,16.12
2019-03-04T03:10:14.690Z,18.42
2019-03-04T03:12:46.002Z,22.75
2019-03-04T03:15:18.519Z,15.68
2019-03-04T03:17:49.849Z,16.73
2019-03-04T03:20:21.134Z,14.55
2019-03-04T03:22:52.342Z,17.87
2019-03-04T03:25:23.438Z,20.10
2019-03-04T03:27:54.710Z,22.87
2019-03-04T03:30:25.878Z,17.62
2019-03-04T03:32:57.209Z,16.97
2019-03-04T03:35:28.389Z,20.75
2019-03-04T03:37:59.631Z,18.02
2019-03-04T03:40:30.901Z,23.18
2019-03-04T03:43:01.827Z,18.70
2019-03-04T03:45:32.647Z,23.10
2019-03-04T03:48:03.439Z,14.05
2019-03-04T03:50:34.779Z,19.50
2019-03-04T03:53:05.918Z,18.10
2019-03-04T03:55:37.151Z,23.47
2019-03-04T03:58:08.451Z,18.60
2019-03-04T04:00:39.603Z,17.70
2019-03-04T04:03:10.946Z,20.20
2019-03-04T04:05:42.129Z,19.73
2019-03-04T04:08:13.448Z,16.93
2019-03-04T04:10:44.649Z,19.95
2019-03-04T04:13:15.855Z,27.07
2019-03-04T04:15:47.190Z,19.35
2019-03-04T04:18:18.088Z,18.17
2019-03-04T04:20:49.476Z,28.50
2019-03-04T04:23:20.307Z,20.37
2019-03-04T04:25:51.115Z,19.57
2019-03-04T04:28:21.937Z,21.33
2019-03-04T04:30:52.755Z,20.10
2019-03-04T04:33:23.609Z,17.77
2019-03-04T04:35:54.803Z,18.10
2019-03-04T04:38:26.001Z,20.77
2019-03-04T04:40:57.076Z,15.43
2019-03-04T04:43:29.274Z,22.70
2019-03-04T04:46:00.617Z,17.27
2019-03-04T04:48:31.915Z,15.50
2019-03-04T04:51:03.196Z,21.52
2019-03-04T04:53:34.466Z,22.55
2019-03-04T04:56:06.013Z,20.20
2019-03-04T04:58:37.213Z,16.12
2019-03-04T05:01:08.029Z,19.60
2019-03-04T05:03:38.869Z,20.43
2019-03-04T05:06:09.977Z,22.10
2019-03-04T05:08:41.123Z,19.35
2019-03-04T05:11:12.545Z,15.93
2019-03-04T05:13:43.521Z,20.90
2019-03-04T05:16:14.802Z,25.02
2019-03-04T05:18:46.837Z,29.12
2019-03-04T05:21:18.074Z,21.70
2019-03-04T05:23:49.425Z,22.20
2019-03-04T05:26:21.800Z,15.25
2019-03-04T05:28:52.952Z,18.25
2019-03-04T05:31:23.986Z,23.60
2019-03-04T05:33:55.587Z,20.12
2019-03-04T05:36:27.859Z,20.08
2019-03-04T05:38:59.058Z,23.77
2019-03-04T05:41:30.409Z,26.80
2019-03-04T05:44:01.750Z,20.75
2019-03-04T05:46:32.897Z,22.62
2019-03-04T05:49:04.110Z,21.82
2019-03-04T05:51:35.365Z,23.12
2019-03-04T05:54:06.686Z,25.70
2019-03-04T05:56:37.689Z,20.23
2019-03-04T05:59:08.880Z,21.20
2019-03-04T06:01:42.239Z,23.10
2019-03-04T06:04:13.933Z,22.02
2019-03-04T06:07:02.133Z,23.12
2019-03-04T06:09:33.364Z,23.95
2019-03-04T06:12:04.614Z,21.07
2019-03-04T06:14:35.837Z,18.35
2019-03-04T06:17:07.153Z,22.87
2019-03-04T06:19:38.275Z,24.55
2019-03-04T06:22:09.471Z,25.95
2019-03-04T06:24:40.287Z,23.52
2019-03-04T06:27:11.137Z,16.55
2019-03-04T06:29:42.327Z,23.52
2019-03-04T06:32:13.529Z,22.98
2019-03-04T06:34:44.649Z,20.88
2019-03-04T06:37:15.803Z,26.70
2019-03-04T06:39:47.016Z,24.18
2019-03-04T06:42:18.244Z,20.68
2019-03-04T06:44:49.465Z,18.77
2019-03-04T06:47:20.649Z,26.85
2019-03-04T06:49:52.012Z,20.23
2019-03-04T06:52:23.296Z,27.25
2019-03-04T06:55:18.719Z,21.73
2019-03-04T06:57:51.623Z,18.52
2019-03-04T07:00:44.646Z,23.52
2019-03-04T07:03:44.757Z,29.45
2019-03-04T07:06:16.193Z,16.15
2019-03-04T07:09:13.556Z,23.92
2019-03-04T07:11:48.355Z,26.40
2019-03-04T07:14:19.504Z,25.80
2019-03-04T07:16:51.733Z,21.07
2019-03-04T07:19:26.859Z,30.62
2019-03-04T07:21:58.092Z,27.20
2019-03-04T07:24:29.257Z,23.15
2019-03-04T07:27:00.386Z,25.75
2019-03-04T07:29:31.540Z,26.77
2019-03-04T07:32:02.727Z,25.10
2019-03-04T07:34:34.170Z,25.57
2019-03-04T07:37:05.469Z,25.37
2019-03-04T07:39:36.614Z,24.23
2019-03-04T07:42:07.794Z,29.10
2019-03-04T07:44:39.092Z,23.87
2019-03-04T07:47:10.450Z,29.48
2019-03-04T07:49:41.847Z,22.75
2019-03-04T07:52:12.940Z,23.90
2019-03-04T07:54:44.076Z,26.20
2019-03-04T07:57:15.310Z,19.57
2019-03-04T07:59:46.469Z,25.95
2019-03-04T08:02:17.618Z,21.50
2019-03-04T08:04:48.756Z,32.83
2019-03-04T08:07:51.433Z,23.77
2019-03-04T08:10:53.322Z,26.02
2019-03-04T08:13:38.167Z,24.37
2019-03-04T08:16:10.972Z,31.42
2019-03-04T08:18:42.220Z,31.97
2019-03-04T08:21:13.404Z,28.23
2019-03-04T08:23:44.556Z,30.50
2019-03-04T08:26:15.978Z,32.03
2019-03-04T08:28:46.946Z,30.20
2019-03-04T08:31:18.282Z,27.35
2019-03-04T08:33:49.659Z,26.40
2019-03-04T08:36:20.487Z,30.68
2019-03-04T08:38:51.681Z,28.17
2019-03-04T08:41:22.814Z,32.17
2019-03-04T08:43:54.078Z,27.05
2019-03-04T08:46:25.210Z,32.98
2019-03-04T08:48:56.380Z,30.55
2019-03-04T08:51:27.759Z,28.73
2019-03-04T08:53:58.934Z,34.13
2019-03-04T08:56:30.105Z,31.45
2019-03-04T08:59:01.265Z,37.67
2019-03-04T09:01:32.489Z,31.62
2019-03-04T09:04:03.692Z,36.85
2019-03-04T09:06:34.920Z,33.58
2019-03-04T09:09:08.782Z,35.78
2019-03-04T09:11:39.677Z,33.60
2019-03-04T09:14:10.625Z,35.33
2019-03-04T09:16:41.506Z,31.68
2019-03-04T09:19:13.351Z,38.98
2019-03-04T09:21:46.953Z,37.75
2019-03-04T09:24:19.258Z,33.78
2019-03-04T09:26:50.185Z,34.67
2019-03-04T09:29:21.017Z,26.75
2019-03-04T09:31:52.181Z,23.75
2019-03-04T09:34:23.388Z,24.60
2019-03-04T09:36:54.622Z,33.65
2019-03-04T09:39:26.128Z,29.85
2019-03-04T09:42:04.277Z,34.33
2019-03-04T09:44:35.485Z,26.90
2019-03-04T09:47:07.553Z,26.27
2019-03-04T09:49:38.432Z,24.07
2019-03-04T09:52:09.431Z,27.40
2019-03-04T09:54:40.770Z,25.00
2019-03-04T09:57:11.909Z,28.23
2019-03-04T09:59:43.075Z,26.73
2019-03-04T10:02:21.673Z,24.47
2019-03-04T10:05:51.292Z,29.75
2019-03-04T10:08:36.607Z,26.85
2019-03-04T10:11:50.228Z,25.15
2019-03-04T10:15:10.934Z,25.77
2019-03-04T10:18:26.685Z,27.52
2019-03-04T10:21:17.223Z,27.93
2019-03-04T10:24:29.124Z,26.73
2019-03-04T10:27:24.982Z,26.52
2019-03-04T10:30:27.347Z,28.73
2019-03-04T10:33:33.388Z,28.17
2019-03-04T10:37:03.237Z,29.10
2019-03-04T10:40:25.033Z,25.30
2019-03-04T10:43:33.197Z,27.42
2019-03-04T10:46:44.238Z,29.92
2019-03-04T10:49:15.484Z,29.23
2019-03-04T10:51:46.619Z,28.70
2019-03-04T10:54:17.797Z,21.40
2019-03-04T10:56:49.062Z,21.75
2019-03-04T10:59:20.275Z,21.70
2019-03-04T11:01:52.001Z,23.80
2019-03-04T11:04:36.673Z,16.77
2019-03-04T11:07:07.505Z,22.15
2019-03-04T11:09:38.571Z,24.35
2019-03-04T11:12:09.467Z,21.12
2019-03-04T11:14:40.655Z,26.77
2019-03-04T11:17:11.741Z,20.90
2019-03-04T11:19:42.951Z,15.48
2019-03-04T11:22:14.224Z,21.15
2019-03-04T11:24:46.470Z,19.77
2019-03-04T11:27:17.917Z,20.02
2019-03-04T11:29:48.746Z,19.07
2019-03-04T11:32:19.556Z,17.42
2019-03-04T11:34:50.412Z,15.38
2019-03-04T11:37:21.273Z,19.65
2019-03-04T11:40:11.896Z,18.45
2019-03-04T11:42:42.704Z,19.42
2019-03-04T11:45:16.049Z,19.40
2019-03-04T11:47:47.292Z,16.37
2019-03-04T11:50:18.702Z,19.82
2019-03-04T11:52:49.945Z,20.72
2019-03-04T11:55:21.744Z,21.75
2019-03-04T11:57:52.896Z,18.40
2019-03-04T12:00:35.366Z,16.07
2019-03-04T12:03:06.905Z,20.60
2019-03-04T12:05:38.237Z,25.80
2019-03-04T12:08:09.060Z,26.42
2019-03-04T12:10:40.197Z,22.87
2019-03-04T12:13:11.129Z,23.62
2019-03-04T12:15:42.147Z,20.10
2019-03-04T12:18:12.949Z,17.00
2019-03-04T12:20:44.904Z,23.98
2019-03-04T12:23:16.517Z,17.80
2019-03-04T12:25:47.745Z,19.05
2019-03-04T12:28:19.906Z,20.32
2019-03-04T12:30:50.912Z,21.45
2019-03-04T12:33:21.737Z,20.17
2019-03-04T12:35:52.597Z,20.72
2019-03-04T12:38:23.402Z,19.52
2019-03-04T12:40:54.280Z,17.57
2019-03-04T12:43:25.425Z,16.87
2019-03-04T12:45:56.589Z,17.73
2019-03-04T12:48:27.635Z,17.12
2019-03-04T12:50:59.037Z,15.70
2019-03-04T12:53:37.038Z,21.52
2019-03-04T12:56:05.167Z,19.55
2019-03-04T12:58:36.005Z,16.23
2019-03-04T13:01:07.032Z,15.48
2019-03-04T13:03:38.186Z,18.70
2019-03-04T13:06:09.336Z,19.67
2019-03-04T13:08:40.159Z,16.25
2019-03-04T13:11:10.991Z,13.00
2019-03-04T13:13:41.800Z,14.50
2019-03-04T13:16:12.681Z,16.23
2019-03-04T13:18:45.252Z,15.30
2019-03-04T13:21:17.231Z,14.28
2019-03-04T13:23:48.347Z,13.00
2019-03-04T13:26:19.208Z,16.27
2019-03-04T13:28:50.033Z,15.05
2019-03-04T13:31:20.864Z,14.73
2019-03-04T13:33:51.681Z,12.28
2019-03-04T13:36:22.762Z,16.00
2019-03-04T13:38:53.552Z,12.88
2019-03-04T13:41:24.800Z,16.90
2019-03-04T13:43:55.611Z,17.70
2019-03-04T13:46:26.436Z,17.57
2019-03-04T13:48:57.548Z,15.00
2019-03-04T13:51:28.404Z,13.13
2019-03-04T13:53:59.256Z,17.30
2019-03-04T13:56:30.386Z,16.05
2019-03-04T13:59:01.569Z,15.13
2019-03-04T14:01:32.764Z,13.98
2019-03-04T14:04:03.914Z,15.72
2019-03-04T14:06:34.864Z,16.87
2019-03-04T14:09:07.380Z,17.35
2019-03-04T14:11:38.898Z,11.78
2019-03-04T14:14:09.713Z,16.30
2019-03-04T14:16:40.552Z,17.95
2019-03-04T14:19:11.365Z,18.62
2019-03-04T14:21:42.169Z,15.08
2019-03-04T14:24:13.074Z,20.60
2019-03-04T14:26:44.454Z,18.75
2019-03-04T14:29:15.613Z,19.73
2019-03-04T14:31:46.540Z,20.57
2019-03-04T14:34:17.359Z,17.95
2019-03-04T14:36:48.176Z,18.23
2019-03-04T14:39:19.133Z,18.25
2019-03-04T14:41:50.075Z,17.37
2019-03-04T14:44:21.329Z,17.65
2019-03-04T14:46:52.184Z,16.23
2019-03-04T14:49:22.988Z,17.45
2019-03-04T14:51:53.849Z,16.95
2019-03-04T14:54:24.652Z,15.28
2019-03-04T14:56:55.713Z,12.58
2019-03-04T14:59:26.505Z,15.45
2019-03-04T15:01:57.337Z,18.67
2019-03-04T15:04:28.157Z,16.77
2019-03-04T15:06:58.994Z,16.07
2019-03-04T15:09:29.841Z,17.55
2019-03-04T15:12:00.680Z,19.75
2019-03-04T15:14:33.814Z,15.58
2019-03-04T15:17:04.632Z,18.52
2019-03-04T15:19:35.432Z,16.05
2019-03-04T15:22:06.471Z,17.10
2019-03-04T15:24:37.292Z,19.27
2019-03-04T15:27:08.109Z,18.62
2019-03-04T15:29:38.953Z,16.85
2019-03-04T15:32:09.797Z,17.50
2019-03-04T15:34:40.721Z,14.43
2019-03-04T15:37:12.264Z,16.73
2019-03-04T15:39:43.436Z,20.85
2019-03-04T15:42:14.625Z,17.95
2019-03-04T15:44:45.445Z,16.80
2019-03-04T15:47:16.284Z,16.35
2019-03-04T15:49:47.100Z,19.00
2019-03-04T15:52:18.076Z,16.45
2019-03-04T15:54:48.895Z,16.95
2019-03-04T15:57:19.849Z,18.60
2019-03-04T15:59:50.676Z,15.60
2019-03-04T16:02:21.795Z,16.10
2019-03-04T16:04:52.605Z,17.40
2019-03-04T16:07:23.533Z,16.00
2019-03-04T16:09:54.338Z,17.77
2019-03-04T16:12:25.401Z,20.68
2019-03-04T16:14:56.640Z,20.62
2019-03-04T16:17:27.488Z,21.65
2019-03-04T16:19:58.306Z,25.05
2019-03-04T16:22:29.104Z,24.52
2019-03-04T16:25:00.328Z,24.50
2019-03-04T16:27:31.559Z,25.45
2019-03-04T16:30:02.377Z,31.17
2019-03-04T16:32:33.301Z,27.30
2019-03-04T16:35:04.299Z,25.27
2019-03-04T16:37:35.144Z,27.45
2019-03-04T16:40:07.169Z,26.15
2019-03-04T16:42:38.224Z,22.50
2019-03-04T16:45:09.347Z,26.40
2019-03-04T16:47:40.181Z,27.70
2019-03-04T16:50:12.789Z,23.38
2019-03-04T16:52:44.112Z,25.90
2019-03-04T16:55:15.968Z,24.87
2019-03-04T16:57:46.957Z,33.67
2019-03-04T17:00:19.049Z,35.05
2019-03-04T17:02:50.277Z,33.50
2019-03-04T17:05:21.448Z,34.83
2019-03-04T17:07:52.325Z,41.23
2019-03-04T17:10:23.233Z,49.33
2019-03-04T17:12:54.916Z,44.27
2019-03-04T17:15:25.980Z,46.42
2019-03-04T17:17:56.810Z,43.33
2019-03-04T17:20:27.672Z,47.53
2019-03-04T17:22:58.656Z,39.10
2019-03-04T17:25:29.516Z,38.88
2019-03-04T17:28:00.472Z,34.98
2019-03-04T17:30:31.448Z,36.90
2019-03-04T17:33:02.383Z,32.78
2019-03-04T17:35:33.402Z,34.18
2019-03-04T17:38:04.369Z,32.40
2019-03-04T17:40:35.255Z,27.80
2019-03-04T17:43:06.120Z,26.23
2019-03-04T17:45:37.164Z,28.15
2019-03-04T17:48:08.196Z,23.62
2019-03-04T17:50:39.292Z,27.45
2019-03-04T17:53:10.260Z,26.37
2019-03-04T17:55:41.092Z,21.23
2019-03-04T17:58:12.109Z,22.15
2019-03-04T18:00:45.937Z,19.23
2019-03-04T18:03:16.829Z,23.67
2019-03-04T18:05:47.789Z,19.80
2019-03-04T18:08:18.841Z,19.57
2019-03-04T18:10:49.703Z,23.87
2019-03-04T18:13:20.669Z,21.48
2019-03-04T18:15:51.870Z,24.52
2019-03-04T18:18:22.717Z,25.43
2019-03-04T18:20:53.555Z,25.27
2019-03-04T18:23:24.392Z,23.15
2019-03-04T18:26:02.717Z,23.55
2019-03-04T18:29:00.969Z,21.42
2019-03-04T18:31:46.562Z,29.95
2019-03-04T18:34:56.654Z,28.07
2019-03-04T18:38:07.128Z,28.15
2019-03-04T18:41:20.850Z,28.12
2019-03-04T18:44:45.488Z,27.80
2019-03-04T18:48:03.194Z,28.57
2019-03-04T18:50:34.135Z,28.70
2019-03-04T18:53:05.089Z,28.75
2019-03-04T18:55:37.514Z,29.07
2019-03-04T18:58:08.629Z,32.20
2019-03-04T19:00:39.467Z,29.00
2019-03-04T19:03:11.373Z,27.62
2019-03-04T19:05:42.205Z,32.08
2019-03-04T19:08:14.108Z,29.30
2019-03-04T19:10:45.026Z,33.33
2019-03-04T19:13:15.867Z,30.15
2019-03-04T19:15:46.924Z,32.67
2019-03-04T19:18:17.760Z,33.73
2019-03-04T19:20:48.716Z,34.03
2019-03-04T19:23:19.701Z,31.65
2019-03-04T19:25:50.505Z,47.75
2019-03-04T19:28:21.417Z,58.63
2019-03-04T19:30:52.448Z,34.40
2019-03-04T19:33:23.461Z,37.10
2019-03-04T19:35:54.388Z,37.15
2019-03-04T19:38:25.407Z,29.92
2019-03-04T19:40:56.285Z,35.40
2019-03-04T19:43:32.820Z,31.48
2019-03-04T19:45:59.670Z,35.05
2019-03-04T19:48:30.573Z,36.90
2019-03-04T19:51:01.636Z,31.12
2019-03-04T19:53:32.642Z,36.38
2019-03-04T19:56:03.693Z,30.75
2019-03-04T19:58:34.736Z,27.93
2019-03-04T20:01:06.185Z,29.50
2019-03-04T20:03:37.128Z,28.15
2019-03-04T20:06:08.169Z,28.25
2019-03-04T20:08:40.045Z,24.63
2019-03-04T20:11:11.897Z,25.62
2019-03-04T20:13:43.837Z,26.25
2019-03-04T20:16:14.772Z,25.48
2019-03-04T20:18:45.878Z,23.50
2019-03-04T20:21:16.824Z,25.77
2019-03-04T20:23:47.659Z,27.05
2019-03-04T20:26:18.490Z,27.05
2019-03-04T20:28:49.336Z,23.22
2019-03-04T20:31:20.188Z,21.75
2019-03-04T20:33:51.065Z,25.72
2019-03-04T20:36:21.945Z,18.48
2019-03-04T20:38:52.955Z,21.62
2019-03-04T20:41:24.016Z,18.50
2019-03-04T20:43:55.973Z,15.10
2019-03-04T20:46:26.977Z,16.42
2019-03-04T20:48:57.864Z,16.23
2019-03-04T20:51:28.732Z,16.32
2019-03-04T20:53:59.580Z,17.05
2019-03-04T20:56:30.423Z,12.25
2019-03-04T20:59:03.331Z,18.37
2019-03-04T21:01:34.425Z,12.28
2019-03-04T21:04:07.269Z,13.08
2019-03-04T21:06:38.272Z,12.78
2019-03-04T21:09:22.495Z,10.93
2019-03-04T21:11:53.957Z,12.28
2019-03-04T21:14:42.530Z,12.40
2019-03-04T21:17:33.258Z,6.92
2019-03-04T21:20:12.638Z,8.43
2019-03-04T21:23:16.407Z,7.72
2019-03-04T21:26:03.303Z,6.25
2019-03-04T21:29:11.060Z,8.93
2019-03-04T21:32:02.255Z,6.55
2019-03-04T21:35:02.592Z,12.30
2019-03-04T21:37:45.101Z,8.75
2019-03-04T21:40:23.300Z,6.87
2019-03-04T21:43:02.501Z,8.83
2019-03-04T21:46:10.101Z,6.03
2019-03-04T21:48:44.876Z,10.82
2019-03-04T21:51:47.900Z,5.20
2019-03-04T21:54:18.891Z,5.55
2019-03-04T21:57:36.466Z,7.37
2019-03-04T22:00:20.573Z,6.87
2019-03-04T22:03:15.825Z,6.05
2019-03-04T22:05:50.151Z,4.83
2019-03-04T22:08:20.424Z,6.75
2019-03-04T22:10:52.462Z,6.78
2019-03-04T22:13:25.069Z,8.05
2019-03-04T22:15:57.496Z,6.00
2019-03-04T22:18:29.357Z,8.50
2019-03-04T22:21:00.950Z,6.30
2019-03-04T22:23:32.890Z,5.45
2019-03-04T22:26:03.902Z,4.75
2019-03-04T22:28:34.942Z,6.60
2019-03-04T22:31:06.969Z,7.00
2019-03-04T22:33:37.873Z,5.92
2019-03-04T22:36:09.205Z,6.42
2019-03-04T22:38:40.137Z,6.58
2019-03-04T22:41:13.619Z,4.70
2019-03-04T22:43:43.691Z,6.72
2019-03-04T22:46:14.552Z,4.50
2019-03-04T22:48:45.406Z,5.62
2019-03-04T22:51:16.301Z,4.97
2019-03-04T22:53:47.134Z,6.10
2019-03-04T22:56:18.003Z,5.90
2019-03-04T22:58:48.924Z,6.70
2019-03-04T23:01:53.913Z,5.25
2019-03-04T23:04:50.367Z,4.85
2019-03-04T23:07:33.352Z,5.62
2019-03-04T23:10:29.895Z,4.80
2019-03-04T23:13:44.816Z,5.58
2019-03-04T23:16:18.673Z,4.25
2019-03-04T23:18:49.505Z,4.12
2019-03-04T23:21:20.364Z,5.40
2019-03-04T23:23:52.214Z,4.40
2019-03-04T23:26:23.178Z,4.12
2019-03-04T23:28:54.089Z,4.45
2019-03-04T23:31:25.048Z,3.98
2019-03-04T23:33:55.980Z,4.95
2019-03-04T23:36:27.804Z,8.53
2019-03-04T23:38:59.340Z,4.55
2019-03-04T23:41:30.561Z,4.85
2019-03-04T23:44:01.495Z,4.72
2019-03-04T23:46:32.343Z,4.83
2019-03-04T23:49:03.184Z,4.75
2019-03-04T23:51:34.000Z,4.50
2019-03-04T23:54:04.854Z,3.20
2019-03-04T23:56:35.657Z,2.52
2019-03-04T23:59:06.492Z,3.45
